sensor_id;sensor_type;location;lat;lon;timestamp;pressure;altitude;pressure_sealevel;temperature;humidity
50057;BME280;36875;49.468;11.200;2022-10-16T00:01:06;97811.63;;;20.97;59.22
50057;BME280;36875;49.468;11.200;2022-10-16T00:03:33;97804.38;;;20.93;59.25
50057;BME280;36875;49.468;11.200;2022-10-16T00:05:59;97807.28;;;20.96;59.38
50057;BME280;36875;49.468;11.200;2022-10-16T00:08:27;97806.97;;;20.98;59.34
50057;BME280;36875;49.468;11.200;2022-10-16T00:10:57;97816.28;;;20.97;59.17
50057;BME280;36875;49.468;11.200;2022-10-16T00:13:23;97796.00;;;20.89;59.20
50057;BME280;36875;49.468;11.200;2022-10-16T00:15:48;97808.91;;;20.97;59.27
50057;BME280;36875;49.468;11.200;2022-10-16T00:18:14;97813.88;;;20.95;58.97
50057;BME280;36875;49.468;11.200;2022-10-16T00:20:39;97809.53;;;20.94;59.20
50057;BME280;36875;49.468;11.200;2022-10-16T00:23:05;97832.22;;;20.95;59.33
50057;BME280;36875;49.468;11.200;2022-10-16T00:25:32;97836.88;;;20.94;59.27
50057;BME280;36875;49.468;11.200;2022-10-16T00:27:58;97825.94;;;20.94;59.25
50057;BME280;36875;49.468;11.200;2022-10-16T00:30:23;97815.81;;;20.86;59.27
50057;BME280;36875;49.468;11.200;2022-10-16T00:32:49;97800.31;;;20.73;58.95
50057;BME280;36875;49.468;11.200;2022-10-16T00:35:14;97828.19;;;20.92;59.07
50057;BME280;36875;49.468;11.200;2022-10-16T00:37:40;97824.97;;;20.90;59.16
50057;BME280;36875;49.468;11.200;2022-10-16T00:40:06;97831.25;;;20.91;58.96
50057;BME280;36875;49.468;11.200;2022-10-16T00:42:33;97834.31;;;20.89;58.88
50057;BME280;36875;49.468;11.200;2022-10-16T00:44:59;97835.13;;;20.90;59.27
50057;BME280;36875;49.468;11.200;2022-10-16T00:47:27;97834.31;;;20.89;59.12
50057;BME280;36875;49.468;11.200;2022-10-16T00:49:59;97811.91;;;20.78;58.85
50057;BME280;36875;49.468;11.200;2022-10-16T00:52:26;97832.69;;;20.88;59.07
50057;BME280;36875;49.468;11.200;2022-10-16T00:54:52;97821.59;;;20.85;59.23
50057;BME280;36875;49.468;11.200;2022-10-16T00:57:19;97820.13;;;20.87;58.97
50057;BME280;36875;49.468;11.200;2022-10-16T00:59:48;97826.41;;;20.88;58.96
50057;BME280;36875;49.468;11.200;2022-10-16T01:02:16;97830.59;;;20.85;58.93
50057;BME280;36875;49.468;11.200;2022-10-16T01:04:43;97834.13;;;20.86;58.81
50057;BME280;36875;49.468;11.200;2022-10-16T01:07:12;97829.81;;;20.85;59.10
50057;BME280;36875;49.468;11.200;2022-10-16T01:09:47;97845.38;;;20.84;59.00
50057;BME280;36875;49.468;11.200;2022-10-16T01:12:15;97841.84;;;20.84;59.12
50057;BME280;36875;49.468;11.200;2022-10-16T01:14:47;97834.44;;;20.75;59.05
50057;BME280;36875;49.468;11.200;2022-10-16T01:17:16;97833.63;;;20.75;58.94
50057;BME280;36875;49.468;11.200;2022-10-16T01:19:58;97833.97;;;20.82;58.77
50057;BME280;36875;49.468;11.200;2022-10-16T01:22:33;97834.78;;;20.83;59.11
50057;BME280;36875;49.468;11.200;2022-10-16T01:25:04;97820.94;;;20.79;58.85
50057;BME280;36875;49.468;11.200;2022-10-16T01:27:36;97836.22;;;20.80;58.72
50057;BME280;36875;49.468;11.200;2022-10-16T01:30:08;97839.25;;;20.78;58.81
50057;BME280;36875;49.468;11.200;2022-10-16T01:32:36;97845.56;;;20.79;58.87
50057;BME280;36875;49.468;11.200;2022-10-16T01:35:04;97847.16;;;20.80;58.72
50057;BME280;36875;49.468;11.200;2022-10-16T01:37:35;97837.34;;;20.79;58.76
50057;BME280;36875;49.468;11.200;2022-10-16T01:40:05;97835.25;;;20.76;58.87
50057;BME280;36875;49.468;11.200;2022-10-16T01:42:35;97834.94;;;20.77;58.65
50057;BME280;36875;49.468;11.200;2022-10-16T01:45:04;97843.13;;;20.77;58.82
50057;BME280;36875;49.468;11.200;2022-10-16T01:47:33;97848.91;;;20.76;58.66
50057;BME280;36875;49.468;11.200;2022-10-16T01:50:02;97856.63;;;20.74;58.66
50057;BME280;36875;49.468;11.200;2022-10-16T01:52:32;97852.09;;;20.69;58.55
50057;BME280;36875;49.468;11.200;2022-10-16T01:55:03;97855.50;;;20.75;58.65
50057;BME280;36875;49.468;11.200;2022-10-16T01:57:29;97862.09;;;20.74;58.52
50057;BME280;36875;49.468;11.200;2022-10-16T02:00:03;97868.38;;;20.74;58.49
50057;BME280;36875;49.468;11.200;2022-10-16T02:02:30;97875.78;;;20.74;58.60
50057;BME280;36875;49.468;11.200;2022-10-16T02:04:58;97876.88;;;20.73;58.61
50057;BME280;36875;49.468;11.200;2022-10-16T02:07:28;97882.34;;;20.73;58.58
50057;BME280;36875;49.468;11.200;2022-10-16T02:09:54;97875.28;;;20.72;58.55
50057;BME280;36875;49.468;11.200;2022-10-16T02:12:23;97883.50;;;20.72;58.77
50057;BME280;36875;49.468;11.200;2022-10-16T02:14:50;97879.13;;;20.71;58.69
50057;BME280;36875;49.468;11.200;2022-10-16T02:17:18;97882.84;;;20.66;58.50
50057;BME280;36875;49.468;11.200;2022-10-16T02:19:44;97872.06;;;20.70;58.58
50057;BME280;36875;49.468;11.200;2022-10-16T02:22:16;97868.50;;;20.69;58.64
50057;BME280;36875;49.468;11.200;2022-10-16T02:24:50;97868.50;;;20.69;58.47
50057;BME280;36875;49.468;11.200;2022-10-16T02:27:20;97877.06;;;20.68;58.43
50057;BME280;36875;49.468;11.200;2022-10-16T02:29:53;97878.66;;;20.69;58.50
50057;BME280;36875;49.468;11.200;2022-10-16T02:32:29;97863.53;;;20.63;58.70
50057;BME280;36875;49.468;11.200;2022-10-16T02:34:56;97873.50;;;20.67;58.41
50057;BME280;36875;49.468;11.200;2022-10-16T02:37:24;97856.53;;;20.56;58.81
50057;BME280;36875;49.468;11.200;2022-10-16T02:39:50;97875.44;;;20.67;58.46
50057;BME280;36875;49.468;11.200;2022-10-16T02:42:17;97868.34;;;20.66;58.49
50057;BME280;36875;49.468;11.200;2022-10-16T02:44:43;97864.81;;;20.65;58.45
50057;BME280;36875;49.468;11.200;2022-10-16T02:47:09;97870.59;;;20.64;58.77
50057;BME280;36875;49.468;11.200;2022-10-16T02:49:36;97863.22;;;20.64;58.39
50057;BME280;36875;49.468;11.200;2022-10-16T02:52:01;97854.13;;;20.55;58.24
50057;BME280;36875;49.468;11.200;2022-10-16T02:54:27;97876.88;;;20.64;58.58
50057;BME280;36875;49.468;11.200;2022-10-16T02:56:52;97870.59;;;20.64;58.34
50057;BME280;36875;49.468;11.200;2022-10-16T02:59:18;97869.78;;;20.63;58.33
50057;BME280;36875;49.468;11.200;2022-10-16T03:01:43;97869.00;;;20.63;58.60
50057;BME280;36875;49.468;11.200;2022-10-16T03:04:09;97876.34;;;20.62;58.39
50057;BME280;36875;49.468;11.200;2022-10-16T03:06:36;97864.25;;;20.54;58.51
50057;BME280;36875;49.468;11.200;2022-10-16T03:09:01;97877.50;;;20.61;58.57
50057;BME280;36875;49.468;11.200;2022-10-16T03:11:27;97876.69;;;20.60;58.38
50057;BME280;36875;49.468;11.200;2022-10-16T03:13:53;97873.13;;;20.60;58.54
50057;BME280;36875;49.468;11.200;2022-10-16T03:16:18;97876.69;;;20.60;58.25
50057;BME280;36875;49.468;11.200;2022-10-16T03:18:48;97877.78;;;20.59;58.23
50057;BME280;36875;49.468;11.200;2022-10-16T03:21:13;97866.50;;;20.52;58.22
50057;BME280;36875;49.468;11.200;2022-10-16T03:23:40;97881.63;;;20.58;58.24
50057;BME280;36875;49.468;11.200;2022-10-16T03:26:06;97885.97;;;20.59;58.30
50057;BME280;36875;49.468;11.200;2022-10-16T03:28:31;97882.75;;;20.57;58.27
50057;BME280;36875;49.468;11.200;2022-10-16T03:30:57;97882.75;;;20.57;58.47
50057;BME280;36875;49.468;11.200;2022-10-16T03:33:22;97889.03;;;20.58;58.27
50057;BME280;36875;49.468;11.200;2022-10-16T03:35:51;97881.97;;;20.57;58.47
50057;BME280;36875;49.468;11.200;2022-10-16T03:38:17;97892.06;;;20.56;58.31
50057;BME280;36875;49.468;11.200;2022-10-16T03:40:44;97885.81;;;20.56;58.28
50057;BME280;36875;49.468;11.200;2022-10-16T03:43:09;97886.13;;;20.54;58.45
50057;BME280;36875;49.468;11.200;2022-10-16T03:45:35;97881.47;;;20.55;58.29
50057;BME280;36875;49.468;11.200;2022-10-16T03:48:00;97888.84;;;20.54;58.40
50057;BME280;36875;49.468;11.200;2022-10-16T03:50:27;97894.31;;;20.54;58.15
50057;BME280;36875;49.468;11.200;2022-10-16T03:52:53;97899.78;;;20.54;58.08
50057;BME280;36875;49.468;11.200;2022-10-16T03:55:18;97894.31;;;20.54;58.39
50057;BME280;36875;49.468;11.200;2022-10-16T03:57:45;97896.25;;;20.54;58.14
50057;BME280;36875;49.468;11.200;2022-10-16T04:00:11;97891.91;;;20.53;58.27
50057;BME280;36875;49.468;11.200;2022-10-16T04:02:37;97883.50;;;20.49;58.40
50057;BME280;36875;49.468;11.200;2022-10-16T04:05:03;97888.38;;;20.52;58.22
50057;BME280;36875;49.468;11.200;2022-10-16T04:07:28;97889.50;;;20.51;58.42
50057;BME280;36875;49.468;11.200;2022-10-16T04:09:54;97899.59;;;20.51;58.34
50057;BME280;36875;49.468;11.200;2022-10-16T04:12:20;97895.75;;;20.52;58.37
50057;BME280;36875;49.468;11.200;2022-10-16T04:14:46;97907.00;;;20.50;58.15
50057;BME280;36875;49.468;11.200;2022-10-16T04:17:12;97906.22;;;20.50;58.22
50057;BME280;36875;49.468;11.200;2022-10-16T04:19:37;97896.84;;;20.42;58.35
50057;BME280;36875;49.468;11.200;2022-10-16T04:22:03;97906.84;;;20.47;58.46
50057;BME280;36875;49.468;11.200;2022-10-16T04:24:31;97916.66;;;20.48;58.15
50057;BME280;36875;49.468;11.200;2022-10-16T04:26:56;97925.66;;;20.48;58.43
50057;BME280;36875;49.468;11.200;2022-10-16T04:29:22;97924.84;;;20.48;58.22
50057;BME280;36875;49.468;11.200;2022-10-16T04:31:49;97925.78;;;20.43;58.22
50057;BME280;36875;49.468;11.200;2022-10-16T04:34:14;97936.59;;;20.48;58.17
50057;BME280;36875;49.468;11.200;2022-10-16T04:36:40;97921.59;;;20.46;58.18
50057;BME280;36875;49.468;11.200;2022-10-16T04:39:05;97912.59;;;20.45;58.29
50057;BME280;36875;49.468;11.200;2022-10-16T04:41:31;97913.09;;;20.47;58.25
50057;BME280;36875;49.468;11.200;2022-10-16T04:43:56;97914.22;;;20.46;58.12
50057;BME280;36875;49.468;11.200;2022-10-16T04:46:22;97917.91;;;20.41;58.08
50057;BME280;36875;49.468;11.200;2022-10-16T04:48:48;97918.06;;;20.45;58.32
50057;BME280;36875;49.468;11.200;2022-10-16T04:51:14;97920.81;;;20.45;58.25
50057;BME280;36875;49.468;11.200;2022-10-16T04:53:39;97914.84;;;20.43;58.10
50057;BME280;36875;49.468;11.200;2022-10-16T04:56:05;97915.66;;;20.44;58.25
50057;BME280;36875;49.468;11.200;2022-10-16T04:58:31;97914.06;;;20.42;58.17
50057;BME280;36875;49.468;11.200;2022-10-16T05:00:56;97914.06;;;20.42;58.19
50057;BME280;36875;49.468;11.200;2022-10-16T05:03:21;97900.22;;;20.39;58.10
50057;BME280;36875;49.468;11.200;2022-10-16T05:05:48;97901.50;;;20.41;58.42
50057;BME280;36875;49.468;11.200;2022-10-16T05:08:15;97895.66;;;20.34;58.52
50057;BME280;36875;49.468;11.200;2022-10-16T05:10:41;97910.84;;;20.40;58.11
50057;BME280;36875;49.468;11.200;2022-10-16T05:13:07;97917.91;;;20.41;58.17
50057;BME280;36875;49.468;11.200;2022-10-16T05:15:33;97918.03;;;20.36;58.08
50057;BME280;36875;49.468;11.200;2022-10-16T05:17:58;97913.06;;;20.38;58.07
50057;BME280;36875;49.468;11.200;2022-10-16T05:20:24;97916.28;;;20.40;58.47
50057;BME280;36875;49.468;11.200;2022-10-16T05:22:50;97927.22;;;20.40;58.25
50057;BME280;36875;49.468;11.200;2022-10-16T05:25:16;97934.59;;;20.40;58.12
50057;BME280;36875;49.468;11.200;2022-10-16T05:27:42;97921.28;;;20.38;58.49
50057;BME280;36875;49.468;11.200;2022-10-16T05:30:08;97924.00;;;20.38;58.42
50057;BME280;36875;49.468;11.200;2022-10-16T05:32:34;97930.28;;;20.39;58.28
50057;BME280;36875;49.468;11.200;2022-10-16T05:34:59;97934.09;;;20.38;58.29
50057;BME280;36875;49.468;11.200;2022-10-16T05:37:25;97927.34;;;20.35;58.58
50057;BME280;36875;49.468;11.200;2022-10-16T05:39:52;97934.75;;;20.35;58.36
50057;BME280;36875;49.468;11.200;2022-10-16T05:42:17;97937.16;;;20.36;58.46
50057;BME280;36875;49.468;11.200;2022-10-16T05:44:43;97949.22;;;20.35;58.42
50057;BME280;36875;49.468;11.200;2022-10-16T05:47:08;97952.75;;;20.36;58.18
50057;BME280;36875;49.468;11.200;2022-10-16T05:49:34;97960.94;;;20.36;58.50
50057;BME280;36875;49.468;11.200;2022-10-16T05:51:59;97968.34;;;20.35;58.28
50057;BME280;36875;49.468;11.200;2022-10-16T05:54:24;97977.66;;;20.34;58.60
50057;BME280;36875;49.468;11.200;2022-10-16T05:56:51;97970.91;;;20.32;58.35
50057;BME280;36875;49.468;11.200;2022-10-16T05:59:17;97971.22;;;20.30;58.36
50057;BME280;36875;49.468;11.200;2022-10-16T06:01:42;97976.84;;;20.34;58.25
50057;BME280;36875;49.468;11.200;2022-10-16T06:04:08;97979.59;;;20.34;58.60
50057;BME280;36875;49.468;11.200;2022-10-16T06:06:34;97994.06;;;20.34;58.14
50057;BME280;36875;49.468;11.200;2022-10-16T06:09:02;97985.06;;;20.34;58.57
50057;BME280;36875;49.468;11.200;2022-10-16T06:11:29;97975.25;;;20.33;58.45
50057;BME280;36875;49.468;11.200;2022-10-16T06:13:58;97972.53;;;20.33;58.32
50057;BME280;36875;49.468;11.200;2022-10-16T06:16:25;97954.25;;;20.19;58.47
50057;BME280;36875;49.468;11.200;2022-10-16T06:18:52;97986.19;;;20.33;58.19
50057;BME280;36875;49.468;11.200;2022-10-16T06:21:19;97987.78;;;20.34;58.29
50057;BME280;36875;49.468;11.200;2022-10-16T06:23:45;97994.41;;;20.33;58.37
50057;BME280;36875;49.468;11.200;2022-10-16T06:26:13;97994.41;;;20.33;58.35
50057;BME280;36875;49.468;11.200;2022-10-16T06:28:39;97995.50;;;20.32;58.35
50057;BME280;36875;49.468;11.200;2022-10-16T06:31:07;97986.00;;;20.29;58.29
50057;BME280;36875;49.468;11.200;2022-10-16T06:33:36;97993.56;;;20.32;58.55
50057;BME280;36875;49.468;11.200;2022-10-16T06:36:02;97996.59;;;20.31;58.35
50057;BME280;36875;49.468;11.200;2022-10-16T06:38:28;97992.75;;;20.32;58.36
50057;BME280;36875;49.468;11.200;2022-10-16T06:40:54;97987.41;;;20.27;58.38
50057;BME280;36875;49.468;11.200;2022-10-16T06:43:19;97990.84;;;20.32;58.27
50057;BME280;36875;49.468;11.200;2022-10-16T06:45:50;98001.75;;;20.32;58.33
50057;BME280;36875;49.468;11.200;2022-10-16T06:48:17;98012.38;;;20.34;58.47
50057;BME280;36875;49.468;11.200;2022-10-16T06:50:43;98005.00;;;20.34;58.34
50057;BME280;36875;49.468;11.200;2022-10-16T06:53:08;98006.63;;;20.35;58.27
50057;BME280;36875;49.468;11.200;2022-10-16T06:55:33;98001.94;;;20.36;58.38
50057;BME280;36875;49.468;11.200;2022-10-16T06:57:59;97992.47;;;20.33;58.37
50057;BME280;36875;49.468;11.200;2022-10-16T07:00:24;98005.31;;;20.33;58.32
50057;BME280;36875;49.468;11.200;2022-10-16T07:02:50;97995.72;;;20.21;58.15
50057;BME280;36875;49.468;11.200;2022-10-16T07:05:17;98024.75;;;20.31;58.42
50057;BME280;36875;49.468;11.200;2022-10-16T07:07:42;98031.94;;;20.27;58.34
50057;BME280;36875;49.468;11.200;2022-10-16T07:10:08;98043.88;;;20.31;58.23
50057;BME280;36875;49.468;11.200;2022-10-16T07:12:34;98049.34;;;20.31;58.31
50057;BME280;36875;49.468;11.200;2022-10-16T07:14:59;98043.41;;;20.29;58.39
50057;BME280;36875;49.468;11.200;2022-10-16T07:17:25;98059.47;;;20.31;58.24
50057;BME280;36875;49.468;11.200;2022-10-16T07:19:50;98065.75;;;20.31;58.23
50057;BME280;36875;49.468;11.200;2022-10-16T07:22:19;98063.03;;;20.31;58.15
50057;BME280;36875;49.468;11.200;2022-10-16T07:24:45;98064.94;;;20.31;58.33
50057;BME280;36875;49.468;11.200;2022-10-16T07:27:12;98057.56;;;20.31;58.54
50057;BME280;36875;49.468;11.200;2022-10-16T07:29:38;98066.56;;;20.32;58.40
50057;BME280;36875;49.468;11.200;2022-10-16T07:32:03;98071.22;;;20.31;57.97
50057;BME280;36875;49.468;11.200;2022-10-16T07:34:29;98069.28;;;20.32;58.26
50057;BME280;36875;49.468;11.200;2022-10-16T07:36:55;98077.50;;;20.32;58.23
50057;BME280;36875;49.468;11.200;2022-10-16T07:39:21;98072.63;;;20.29;58.54
50057;BME280;36875;49.468;11.200;2022-10-16T07:41:47;98077.50;;;20.32;58.30
50057;BME280;36875;49.468;11.200;2022-10-16T07:44:12;98090.34;;;20.31;58.63
50057;BME280;36875;49.468;11.200;2022-10-16T07:46:38;98100.97;;;20.33;58.56
50057;BME280;36875;49.468;11.200;2022-10-16T07:49:04;98093.88;;;20.32;58.89
50057;BME280;36875;49.468;11.200;2022-10-16T07:51:29;98089.84;;;20.29;58.66
50057;BME280;36875;49.468;11.200;2022-10-16T07:53:55;98090.34;;;20.31;58.88
50057;BME280;36875;49.468;11.200;2022-10-16T07:56:22;98067.28;;;20.23;58.71
50057;BME280;36875;49.468;11.200;2022-10-16T07:58:49;98071.03;;;20.28;59.51
50057;BME280;36875;49.468;11.200;2022-10-16T08:01:16;98072.50;;;20.34;59.88
50057;BME280;36875;49.468;11.200;2022-10-16T08:03:43;98048.28;;;20.18;61.11
50057;BME280;36875;49.468;11.200;2022-10-16T08:06:09;98078.78;;;20.34;60.00
50057;BME280;36875;49.468;11.200;2022-10-16T08:08:34;98081.84;;;20.33;59.96
50057;BME280;36875;49.468;11.200;2022-10-16T08:11:00;98086.78;;;20.31;59.73
50057;BME280;36875;49.468;11.200;2022-10-16T08:13:30;98078.72;;;20.26;59.95
50057;BME280;36875;49.468;11.200;2022-10-16T08:15:55;98090.97;;;20.28;60.26
50057;BME280;36875;49.468;11.200;2022-10-16T08:18:21;98098.06;;;20.29;59.91
50057;BME280;36875;49.468;11.200;2022-10-16T08:20:47;98099.16;;;20.28;59.77
50057;BME280;36875;49.468;11.200;2022-10-16T08:23:12;98099.16;;;20.28;59.93
50057;BME280;36875;49.468;11.200;2022-10-16T08:25:39;98098.78;;;20.21;59.88
50057;BME280;36875;49.468;11.200;2022-10-16T08:28:05;98111.38;;;20.31;59.77
50057;BME280;36875;49.468;11.200;2022-10-16T08:30:32;98111.38;;;20.31;60.24
50057;BME280;36875;49.468;11.200;2022-10-16T08:32:58;98111.38;;;20.31;60.03
50057;BME280;36875;49.468;11.200;2022-10-16T08:35:24;98111.38;;;20.31;59.88
50057;BME280;36875;49.468;11.200;2022-10-16T08:37:49;98107.56;;;20.32;59.58
50057;BME280;36875;49.468;11.200;2022-10-16T08:40:18;98110.28;;;20.32;60.08
50057;BME280;36875;49.468;11.200;2022-10-16T08:42:54;98106.44;;;20.33;60.04
50057;BME280;36875;49.468;11.200;2022-10-16T08:45:34;98101.78;;;20.33;60.16
50057;BME280;36875;49.468;11.200;2022-10-16T08:48:11;98105.31;;;20.34;59.77
50057;BME280;36875;49.468;11.200;2022-10-16T08:50:40;98095.44;;;20.24;60.22
50057;BME280;36875;49.468;11.200;2022-10-16T08:53:06;98103.00;;;20.27;60.18
50057;BME280;36875;49.468;11.200;2022-10-16T08:55:37;98105.91;;;20.31;59.90
50057;BME280;36875;49.468;11.200;2022-10-16T08:58:10;98108.66;;;20.31;60.36
50057;BME280;36875;49.468;11.200;2022-10-16T09:00:38;98119.47;;;20.36;60.31
50057;BME280;36875;49.468;11.200;2022-10-16T09:03:11;98114.81;;;20.36;60.65
50057;BME280;36875;49.468;11.200;2022-10-16T09:06:00;98118.06;;;20.38;60.86
50057;BME280;36875;49.468;11.200;2022-10-16T09:08:37;98116.94;;;20.39;60.63
50057;BME280;36875;49.468;11.200;2022-10-16T09:11:12;98115.84;;;20.40;60.49
50057;BME280;36875;49.468;11.200;2022-10-16T09:13:46;98119.38;;;20.41;60.89
50057;BME280;36875;49.468;11.200;2022-10-16T09:16:19;98124.84;;;20.41;60.58
50057;BME280;36875;49.468;11.200;2022-10-16T09:18:52;98116.63;;;20.41;60.57
50057;BME280;36875;49.468;11.200;2022-10-16T09:21:23;98117.25;;;20.38;60.18
50057;BME280;36875;49.468;11.200;2022-10-16T09:23:50;98111.78;;;20.38;60.37
50057;BME280;36875;49.468;11.200;2022-10-16T09:26:16;98119.97;;;20.38;60.10
50057;BME280;36875;49.468;11.200;2022-10-16T09:28:43;98113.72;;;20.37;60.47
50057;BME280;36875;49.468;11.200;2022-10-16T09:31:16;98122.69;;;20.38;60.23
50057;BME280;36875;49.468;11.200;2022-10-16T09:33:44;98112.53;;;20.30;60.11
50057;BME280;36875;49.468;11.200;2022-10-16T09:36:11;98109.28;;;20.28;60.14
50057;BME280;36875;49.468;11.200;2022-10-16T09:38:38;98131.22;;;20.36;60.42
50057;BME280;36875;49.468;11.200;2022-10-16T09:41:14;98127.97;;;20.34;60.20
50057;BME280;36875;49.468;11.200;2022-10-16T09:43:47;98140.84;;;20.34;60.26
50057;BME280;36875;49.468;11.200;2022-10-16T09:46:25;98125.50;;;20.24;60.63
50057;BME280;36875;49.468;11.200;2022-10-16T09:48:54;98147.44;;;20.33;60.35
50057;BME280;36875;49.468;11.200;2022-10-16T09:51:23;98131.88;;;20.19;60.42
50057;BME280;36875;49.468;11.200;2022-10-16T09:53:54;98154.81;;;20.32;60.65
50057;BME280;36875;49.468;11.200;2022-10-16T09:56:22;98162.22;;;20.32;60.25
50057;BME280;36875;49.468;11.200;2022-10-16T09:58:50;98156.75;;;20.32;60.31
50057;BME280;36875;49.468;11.200;2022-10-16T10:01:16;98147.44;;;20.33;60.69
50057;BME280;36875;49.468;11.200;2022-10-16T10:03:43;98140.94;;;20.29;60.32
50057;BME280;36875;49.468;11.200;2022-10-16T10:06:21;98145.50;;;20.33;60.64
50057;BME280;36875;49.468;11.200;2022-10-16T10:09:15;98155.00;;;20.36;60.65
50057;BME280;36875;49.468;11.200;2022-10-16T10:11:45;98168.38;;;20.37;60.91
50057;BME280;36875;49.468;11.200;2022-10-16T10:14:32;98162.09;;;20.37;60.69
50057;BME280;36875;49.468;11.200;2022-10-16T10:17:09;98163.72;;;20.38;60.92
50057;BME280;36875;49.468;11.200;2022-10-16T10:19:39;98151.66;;;20.39;60.72
50057;BME280;36875;49.468;11.200;2022-10-16T10:22:16;98158.72;;;20.40;60.68
50057;BME280;36875;49.468;11.200;2022-10-16T10:24:42;98163.09;;;20.41;60.55
50057;BME280;36875;49.468;11.200;2022-10-16T10:27:12;98162.78;;;20.42;60.44
50057;BME280;36875;49.468;11.200;2022-10-16T10:29:43;98167.31;;;20.47;60.72
50057;BME280;36875;49.468;11.200;2022-10-16T10:32:20;98158.03;;;20.48;60.33
50057;BME280;36875;49.468;11.200;2022-10-16T10:35:00;98161.75;;;20.52;60.12
50057;BME280;36875;49.468;11.200;2022-10-16T10:37:47;98152.75;;;20.52;60.12
50057;BME280;36875;49.468;11.200;2022-10-16T10:40:26;98150.31;;;20.50;60.27
50057;BME280;36875;49.468;11.200;2022-10-16T10:42:59;98161.25;;;20.50;60.36
50057;BME280;36875;49.468;11.200;2022-10-16T10:45:38;98151.13;;;20.51;60.10
50057;BME280;36875;49.468;11.200;2022-10-16T10:48:18;98148.06;;;20.52;60.07
50057;BME280;36875;49.468;11.200;2022-10-16T10:50:49;98155.97;;;20.54;60.18
50057;BME280;36875;49.468;11.200;2022-10-16T10:53:24;98161.75;;;20.52;59.94
50057;BME280;36875;49.468;11.200;2022-10-16T10:56:00;98155.03;;;20.58;59.98
50057;BME280;36875;49.468;11.200;2022-10-16T10:58:59;98152.94;;;20.55;59.92
50057;BME280;36875;49.468;11.200;2022-10-16T11:01:32;98160.84;;;20.57;59.88
50057;BME280;36875;49.468;11.200;2022-10-16T11:04:38;98157.28;;;20.56;59.73
50057;BME280;36875;49.468;11.200;2022-10-16T11:07:12;98151.00;;;20.56;60.08
50057;BME280;36875;49.468;11.200;2022-10-16T11:09:43;98156.78;;;20.54;59.98
50057;BME280;36875;49.468;11.200;2022-10-16T11:12:15;98164.97;;;20.54;60.09
50057;BME280;36875;49.468;11.200;2022-10-16T11:14:48;98164.47;;;20.52;59.94
50057;BME280;36875;49.468;11.200;2022-10-16T11:17:19;98161.75;;;20.52;60.02
50057;BME280;36875;49.468;11.200;2022-10-16T11:19:50;98169.94;;;20.52;59.72
50057;BME280;36875;49.468;11.200;2022-10-16T11:22:23;98161.75;;;20.52;59.97
50057;BME280;36875;49.468;11.200;2022-10-16T11:24:55;98155.19;;;20.53;59.87
50057;BME280;36875;49.468;11.200;2022-10-16T11:27:33;98150.50;;;20.54;60.00
50057;BME280;36875;49.468;11.200;2022-10-16T11:30:11;98156.78;;;20.54;59.76
50057;BME280;36875;49.468;11.200;2022-10-16T11:32:47;98152.06;;;20.46;59.78
50057;BME280;36875;49.468;11.200;2022-10-16T11:35:17;98161.06;;;20.47;59.69
50057;BME280;36875;49.468;11.200;2022-10-16T11:37:46;98168.00;;;20.53;59.49
50057;BME280;36875;49.468;11.200;2022-10-16T11:40:20;98161.75;;;20.52;59.62
50057;BME280;36875;49.468;11.200;2022-10-16T11:42:52;98166.91;;;20.54;59.76
50057;BME280;36875;49.468;11.200;2022-10-16T11:45:26;98159.50;;;20.54;59.45
50057;BME280;36875;49.468;11.200;2022-10-16T11:47:58;98163.56;;;20.57;59.84
50057;BME280;36875;49.468;11.200;2022-10-16T11:50:29;98158.91;;;20.57;59.84
50057;BME280;36875;49.468;11.200;2022-10-16T11:53:02;98166.81;;;20.59;59.95
50057;BME280;36875;49.468;11.200;2022-10-16T11:55:31;98162.66;;;20.62;59.97
50057;BME280;36875;49.468;11.200;2022-10-16T11:58:01;98167.03;;;20.63;59.95
50057;BME280;36875;49.468;11.200;2022-10-16T12:00:32;98167.53;;;20.65;60.14
50057;BME280;36875;49.468;11.200;2022-10-16T12:03:05;98174.59;;;20.66;59.92
50057;BME280;36875;49.468;11.200;2022-10-16T12:05:58;98141.81;;;20.52;60.13
50057;BME280;36875;49.468;11.200;2022-10-16T12:08:26;98178.00;;;20.71;60.14
50057;BME280;36875;49.468;11.200;2022-10-16T12:10:52;98177.41;;;20.74;60.12
50057;BME280;36875;49.468;11.200;2022-10-16T12:13:31;98166.56;;;20.69;60.08
50057;BME280;36875;49.468;11.200;2022-10-16T12:16:21;98174.84;;;20.78;59.73
50057;BME280;36875;49.468;11.200;2022-10-16T12:18:48;98169.88;;;20.80;59.59
50057;BME280;36875;49.468;11.200;2022-10-16T12:21:15;98170.38;;;20.82;59.78
50057;BME280;36875;49.468;11.200;2022-10-16T12:23:50;98179.72;;;20.81;60.01
50057;BME280;36875;49.468;11.200;2022-10-16T12:26:24;98178.47;;;20.87;59.83
50057;BME280;36875;49.468;11.200;2022-10-16T12:28:50;98176.13;;;20.94;60.09
50057;BME280;36875;49.468;11.200;2022-10-16T12:31:17;98170.81;;;20.98;59.68
50057;BME280;36875;49.468;11.200;2022-10-16T12:33:57;98175.38;;;21.03;59.56
50057;BME280;36875;49.468;11.200;2022-10-16T12:36:29;98171.00;;;21.02;59.86
50057;BME280;36875;49.468;11.200;2022-10-16T12:38:58;98167.31;;;21.06;59.65
50057;BME280;36875;49.468;11.200;2022-10-16T12:41:25;98161.19;;;21.01;59.19
50057;BME280;36875;49.468;11.200;2022-10-16T12:43:52;98163.47;;;21.07;59.20
50057;BME280;36875;49.468;11.200;2022-10-16T12:46:24;98167.16;;;21.03;59.48
50057;BME280;36875;49.468;11.200;2022-10-16T12:49:20;98165.97;;;20.95;59.48
50057;BME280;36875;49.468;11.200;2022-10-16T12:51:46;98168.84;;;20.90;59.46
50057;BME280;36875;49.468;11.200;2022-10-16T12:54:15;98162.34;;;20.86;59.49
50057;BME280;36875;49.468;11.200;2022-10-16T12:56:48;98163.50;;;20.85;59.61
50057;BME280;36875;49.468;11.200;2022-10-16T12:59:23;98163.19;;;20.86;59.47